sensor_id;sensor_type;location;lat;lon;timestamp;temperature;humidity
16523;DHT22;19889;52.546;13.348;2022-12-08T00:01:16;3.90;99.90
16523;DHT22;19889;52.546;13.348;2022-12-08T00:03:44;4.10;99.90
16523;DHT22;19889;52.546;13.348;2022-12-08T00:06:18;3.80;99.90
16523;DHT22;19889;52.546;13.348;2022-12-08T00:09:04;3.90;99.90
16523;DHT22;19889;52.546;13.348;2022-12-08T00:11:51;3.80;99.90
16523;DHT22;19889;52.546;13.348;2022-12-08T00:14:22;3.80;99.90
16523;DHT22;19889;52.546;13.348;2022-12-08T00:16:49;3.80;99.90
16523;DHT22;19889;52.546;13.348;2022-12-08T00:19:16;3.80;99.90
16523;DHT22;19889;52.546;13.348;2022-12-08T00:21:43;3.60;99.90
16523;DHT22;19889;52.546;13.348;2022-12-08T00:24:10;4.10;99.90
16523;DHT22;19889;52.546;13.348;2022-12-08T00:26:37;3.70;99.90
16523;DHT22;19889;52.546;13.348;2022-12-08T00:29:05;3.70;99.90
16523;DHT22;19889;52.546;13.348;2022-12-08T00:31:33;3.80;99.90
16523;DHT22;19889;52.546;13.348;2022-12-08T00:34:00;3.80;99.90
16523;DHT22;19889;52.546;13.348;2022-12-08T00:36:27;3.80;99.90
16523;DHT22;19889;52.546;13.348;2022-12-08T00:38:55;4.40;99.90
16523;DHT22;19889;52.546;13.348;2022-12-08T00:41:23;3.70;99.90
16523;DHT22;19889;52.546;13.348;2022-12-08T00:44:05;3.80;99.90
16523;DHT22;19889;52.546;13.348;2022-12-08T00:46:33;3.80;99.90
16523;DHT22;19889;52.546;13.348;2022-12-08T00:49:01;3.70;99.90
16523;DHT22;19889;52.546;13.348;2022-12-08T00:51:28;3.80;99.90
16523;DHT22;19889;52.546;13.348;2022-12-08T00:53:55;3.80;99.90
16523;DHT22;19889;52.546;13.348;2022-12-08T00:56:22;3.90;99.90
16523;DHT22;19889;52.546;13.348;2022-12-08T00:58:50;3.80;99.90
16523;DHT22;19889;52.546;13.348;2022-12-08T01:01:18;3.90;99.90
16523;DHT22;19889;52.546;13.348;2022-12-08T01:03:46;3.90;99.90
16523;DHT22;19889;52.546;13.348;2022-12-08T01:06:13;4.00;99.90
16523;DHT22;19889;52.546;13.348;2022-12-08T01:08:41;4.00;99.90
16523;DHT22;19889;52.546;13.348;2022-12-08T01:11:10;4.00;99.90
16523;DHT22;19889;52.546;13.348;2022-12-08T01:13:38;4.00;99.90
16523;DHT22;19889;52.546;13.348;2022-12-08T01:16:05;4.00;99.90
16523;DHT22;19889;52.546;13.348;2022-12-08T01:18:33;4.10;99.90
16523;DHT22;19889;52.546;13.348;2022-12-08T01:21:03;4.00;99.90
16523;DHT22;19889;52.546;13.348;2022-12-08T01:23:30;4.20;99.90
16523;DHT22;19889;52.546;13.348;2022-12-08T01:26:00;5.20;99.90
16523;DHT22;19889;52.546;13.348;2022-12-08T01:28:28;4.10;99.90
16523;DHT22;19889;52.546;13.348;2022-12-08T01:30:55;4.00;99.90
16523;DHT22;19889;52.546;13.348;2022-12-08T01:33:23;4.30;99.90
16523;DHT22;19889;52.546;13.348;2022-12-08T01:35:50;4.10;99.90
16523;DHT22;19889;52.546;13.348;2022-12-08T01:38:19;4.10;99.90
16523;DHT22;19889;52.546;13.348;2022-12-08T01:40:46;4.20;99.90
16523;DHT22;19889;52.546;13.348;2022-12-08T01:43:15;4.10;99.90
16523;DHT22;19889;52.546;13.348;2022-12-08T01:45:42;4.00;99.90
16523;DHT22;19889;52.546;13.348;2022-12-08T01:48:13;4.10;99.90
16523;DHT22;19889;52.546;13.348;2022-12-08T01:50:44;4.20;99.90
16523;DHT22;19889;52.546;13.348;2022-12-08T01:53:15;4.10;99.90
16523;DHT22;19889;52.546;13.348;2022-12-08T01:55:49;4.10;99.90
16523;DHT22;19889;52.546;13.348;2022-12-08T01:58:22;4.10;99.90
16523;DHT22;19889;52.546;13.348;2022-12-08T02:00:52;4.20;99.90
16523;DHT22;19889;52.546;13.348;2022-12-08T02:03:23;4.10;99.90
16523;DHT22;19889;52.546;13.348;2022-12-08T02:05:51;4.10;99.90
16523;DHT22;19889;52.546;13.348;2022-12-08T02:08:19;4.00;99.90
16523;DHT22;19889;52.546;13.348;2022-12-08T02:10:50;4.10;99.90
16523;DHT22;19889;52.546;13.348;2022-12-08T02:13:19;4.10;99.90
16523;DHT22;19889;52.546;13.348;2022-12-08T02:15:53;4.10;99.90
16523;DHT22;19889;52.546;13.348;2022-12-08T02:18:36;4.00;99.90
16523;DHT22;19889;52.546;13.348;2022-12-08T02:21:09;4.00;99.90
16523;DHT22;19889;52.546;13.348;2022-12-08T02:23:46;4.20;99.90
16523;DHT22;19889;52.546;13.348;2022-12-08T02:26:44;4.00;99.90
16523;DHT22;19889;52.546;13.348;2022-12-08T02:29:39;4.00;99.90
16523;DHT22;19889;52.546;13.348;2022-12-08T02:32:28;4.00;99.90
16523;DHT22;19889;52.546;13.348;2022-12-08T02:35:02;4.00;99.90
16523;DHT22;19889;52.546;13.348;2022-12-08T02:37:33;4.00;99.90
16523;DHT22;19889;52.546;13.348;2022-12-08T02:40:07;4.00;99.90
16523;DHT22;19889;52.546;13.348;2022-12-08T02:42:42;4.00;99.90
16523;DHT22;19889;52.546;13.348;2022-12-08T02:45:13;4.00;99.90
16523;DHT22;19889;52.546;13.348;2022-12-08T02:47:41;4.00;99.90
16523;DHT22;19889;52.546;13.348;2022-12-08T02:50:11;4.00;99.90
16523;DHT22;19889;52.546;13.348;2022-12-08T02:52:41;3.90;99.90
16523;DHT22;19889;52.546;13.348;2022-12-08T02:55:13;4.00;99.90
16523;DHT22;19889;52.546;13.348;2022-12-08T03:00:47;4.00;99.90
16523;DHT22;19889;52.546;13.348;2022-12-08T03:03:26;4.00;99.90
16523;DHT22;19889;52.546;13.348;2022-12-08T03:06:03;4.00;99.90
16523;DHT22;19889;52.546;13.348;2022-12-08T03:08:39;4.00;99.90
16523;DHT22;19889;52.546;13.348;2022-12-08T03:11:10;4.00;99.90
16523;DHT22;19889;52.546;13.348;2022-12-08T03:13:42;4.00;99.90
16523;DHT22;19889;52.546;13.348;2022-12-08T03:16:13;4.40;99.90
16523;DHT22;19889;52.546;13.348;2022-12-08T03:18:46;3.90;99.90
16523;DHT22;19889;52.546;13.348;2022-12-08T03:21:17;3.90;99.90
16523;DHT22;19889;52.546;13.348;2022-12-08T03:23:47;4.10;99.90
16523;DHT22;19889;52.546;13.348;2022-12-08T03:26:18;3.90;99.90
16523;DHT22;19889;52.546;13.348;2022-12-08T03:28:49;3.80;99.90
16523;DHT22;19889;52.546;13.348;2022-12-08T03:31:17;3.90;99.90
16523;DHT22;19889;52.546;13.348;2022-12-08T03:33:47;3.90;99.90
16523;DHT22;19889;52.546;13.348;2022-12-08T03:36:17;3.90;99.90
16523;DHT22;19889;52.546;13.348;2022-12-08T03:38:45;3.80;99.90
16523;DHT22;19889;52.546;13.348;2022-12-08T03:41:17;3.90;99.90
16523;DHT22;19889;52.546;13.348;2022-12-08T03:43:44;3.90;99.90
16523;DHT22;19889;52.546;13.348;2022-12-08T03:46:11;4.10;99.90
16523;DHT22;19889;52.546;13.348;2022-12-08T03:48:38;4.10;99.90
16523;DHT22;19889;52.546;13.348;2022-12-08T03:51:05;3.90;99.90
16523;DHT22;19889;52.546;13.348;2022-12-08T03:53:33;3.80;99.90
16523;DHT22;19889;52.546;13.348;2022-12-08T03:56:03;3.90;99.90
16523;DHT22;19889;52.546;13.348;2022-12-08T03:58:30;3.90;99.90
16523;DHT22;19889;52.546;13.348;2022-12-08T04:00:57;3.90;99.90
16523;DHT22;19889;52.546;13.348;2022-12-08T04:03:24;3.80;99.90
16523;DHT22;19889;52.546;13.348;2022-12-08T04:05:51;3.90;99.90
16523;DHT22;19889;52.546;13.348;2022-12-08T04:08:18;3.80;99.90
16523;DHT22;19889;52.546;13.348;2022-12-08T04:10:47;3.90;99.90
16523;DHT22;19889;52.546;13.348;2022-12-08T04:13:13;3.70;99.90
16523;DHT22;19889;52.546;13.348;2022-12-08T04:15:44;3.80;99.90
16523;DHT22;19889;52.546;13.348;2022-12-08T04:18:12;3.70;99.90
16523;DHT22;19889;52.546;13.348;2022-12-08T04:20:39;4.00;99.90
16523;DHT22;19889;52.546;13.348;2022-12-08T04:23:06;3.80;99.90
16523;DHT22;19889;52.546;13.348;2022-12-08T04:25:33;4.10;99.90
16523;DHT22;19889;52.546;13.348;2022-12-08T04:28:02;3.80;99.90
16523;DHT22;19889;52.546;13.348;2022-12-08T04:30:29;3.80;99.90
16523;DHT22;19889;52.546;13.348;2022-12-08T04:32:56;3.80;99.90
16523;DHT22;19889;52.546;13.348;2022-12-08T04:35:23;3.80;99.90
16523;DHT22;19889;52.546;13.348;2022-12-08T04:37:50;3.70;99.90
16523;DHT22;19889;52.546;13.348;2022-12-08T04:40:17;3.80;99.90
16523;DHT22;19889;52.546;13.348;2022-12-08T04:42:44;3.90;99.90
16523;DHT22;19889;52.546;13.348;2022-12-08T04:45:13;3.70;99.90
16523;DHT22;19889;52.546;13.348;2022-12-08T04:47:40;3.80;99.90
16523;DHT22;19889;52.546;13.348;2022-12-08T04:50:08;3.90;99.90
16523;DHT22;19889;52.546;13.348;2022-12-08T04:52:35;3.80;99.90
16523;DHT22;19889;52.546;13.348;2022-12-08T04:55:03;3.80;99.90
16523;DHT22;19889;52.546;13.348;2022-12-08T04:57:30;3.80;99.90
16523;DHT22;19889;52.546;13.348;2022-12-08T04:59:57;3.80;99.90
16523;DHT22;19889;52.546;13.348;2022-12-08T05:02:25;3.80;99.90
16523;DHT22;19889;52.546;13.348;2022-12-08T05:04:52;3.80;99.90
16523;DHT22;19889;52.546;13.348;2022-12-08T05:07:19;3.70;99.90
16523;DHT22;19889;52.546;13.348;2022-12-08T05:09:46;3.80;99.90
16523;DHT22;19889;52.546;13.348;2022-12-08T05:12:13;3.70;99.90
16523;DHT22;19889;52.546;13.348;2022-12-08T05:14:40;3.80;99.90
16523;DHT22;19889;52.546;13.348;2022-12-08T05:17:07;3.80;99.90
16523;DHT22;19889;52.546;13.348;2022-12-08T05:19:35;3.80;99.90
16523;DHT22;19889;52.546;13.348;2022-12-08T05:22:02;3.90;99.90
16523;DHT22;19889;52.546;13.348;2022-12-08T05:24:29;3.80;99.90
16523;DHT22;19889;52.546;13.348;2022-12-08T05:26:56;4.10;99.90
16523;DHT22;19889;52.546;13.348;2022-12-08T05:29:23;3.90;99.90
16523;DHT22;19889;52.546;13.348;2022-12-08T05:31:50;4.00;99.90
16523;DHT22;19889;52.546;13.348;2022-12-08T05:34:17;3.90;99.90
16523;DHT22;19889;52.546;13.348;2022-12-08T05:36:45;4.30;99.90
16523;DHT22;19889;52.546;13.348;2022-12-08T05:39:13;3.70;99.90
16523;DHT22;19889;52.546;13.348;2022-12-08T05:41:40;3.90;99.90
16523;DHT22;19889;52.546;13.348;2022-12-08T05:44:07;3.90;99.90
16523;DHT22;19889;52.546;13.348;2022-12-08T05:46:35;3.70;99.90
16523;DHT22;19889;52.546;13.348;2022-12-08T05:49:02;4.00;99.90
16523;DHT22;19889;52.546;13.348;2022-12-08T05:51:29;3.80;99.90
16523;DHT22;19889;52.546;13.348;2022-12-08T05:53:58;3.90;99.90
16523;DHT22;19889;52.546;13.348;2022-12-08T05:56:25;3.80;99.90
16523;DHT22;19889;52.546;13.348;2022-12-08T05:58:52;3.70;99.90
16523;DHT22;19889;52.546;13.348;2022-12-08T06:01:20;3.90;99.90
16523;DHT22;19889;52.546;13.348;2022-12-08T06:03:47;3.90;99.90
16523;DHT22;19889;52.546;13.348;2022-12-08T06:06:14;3.40;99.90
16523;DHT22;19889;52.546;13.348;2022-12-08T06:08:42;3.90;99.90
16523;DHT22;19889;52.546;13.348;2022-12-08T06:11:16;3.80;99.90
16523;DHT22;19889;52.546;13.348;2022-12-08T06:13:44;3.90;99.90
16523;DHT22;19889;52.546;13.348;2022-12-08T06:16:10;4.00;99.90
16523;DHT22;19889;52.546;13.348;2022-12-08T06:18:37;4.40;99.90
16523;DHT22;19889;52.546;13.348;2022-12-08T06:21:05;4.00;99.90
16523;DHT22;19889;52.546;13.348;2022-12-08T06:23:33;4.00;99.90
16523;DHT22;19889;52.546;13.348;2022-12-08T06:26:00;4.30;99.90
16523;DHT22;19889;52.546;13.348;2022-12-08T06:28:29;4.10;99.90
16523;DHT22;19889;52.546;13.348;2022-12-08T06:30:56;4.10;99.90
16523;DHT22;19889;52.546;13.348;2022-12-08T06:33:24;4.00;99.90
16523;DHT22;19889;52.546;13.348;2022-12-08T06:35:51;4.10;99.90
16523;DHT22;19889;52.546;13.348;2022-12-08T06:38:18;4.20;99.90
16523;DHT22;19889;52.546;13.348;2022-12-08T06:40:52;4.20;99.90
16523;DHT22;19889;52.546;13.348;2022-12-08T06:43:20;4.20;99.90
16523;DHT22;19889;52.546;13.348;2022-12-08T06:45:49;4.20;99.90
16523;DHT22;19889;52.546;13.348;2022-12-08T06:48:17;4.30;99.90
16523;DHT22;19889;52.546;13.348;2022-12-08T06:50:44;4.20;99.90
16523;DHT22;19889;52.546;13.348;2022-12-08T06:53:11;4.20;99.90
16523;DHT22;19889;52.546;13.348;2022-12-08T06:55:42;4.30;99.90
16523;DHT22;19889;52.546;13.348;2022-12-08T06:58:09;4.30;99.90
16523;DHT22;19889;52.546;13.348;2022-12-08T07:00:36;4.20;99.90
16523;DHT22;19889;52.546;13.348;2022-12-08T07:03:06;4.30;99.90
16523;DHT22;19889;52.546;13.348;2022-12-08T07:05:33;4.30;99.90
16523;DHT22;19889;52.546;13.348;2022-12-08T07:08:00;4.40;99.90
16523;DHT22;19889;52.546;13.348;2022-12-08T07:10:27;4.40;99.90
16523;DHT22;19889;52.546;13.348;2022-12-08T07:12:54;4.30;99.90
16523;DHT22;19889;52.546;13.348;2022-12-08T07:15:21;4.70;99.90
16523;DHT22;19889;52.546;13.348;2022-12-08T07:17:48;4.40;99.90
16523;DHT22;19889;52.546;13.348;2022-12-08T07:20:16;4.40;99.90
16523;DHT22;19889;52.546;13.348;2022-12-08T07:22:47;4.40;99.90
16523;DHT22;19889;52.546;13.348;2022-12-08T07:25:15;4.40;99.90
16523;DHT22;19889;52.546;13.348;2022-12-08T07:27:42;4.40;99.90
16523;DHT22;19889;52.546;13.348;2022-12-08T07:30:10;4.40;99.90
16523;DHT22;19889;52.546;13.348;2022-12-08T07:32:38;4.40;99.90
16523;DHT22;19889;52.546;13.348;2022-12-08T07:35:06;4.40;99.90
16523;DHT22;19889;52.546;13.348;2022-12-08T07:37:35;4.30;99.90
16523;DHT22;19889;52.546;13.348;2022-12-08T07:40:03;4.20;99.90
16523;DHT22;19889;52.546;13.348;2022-12-08T07:42:31;4.40;99.90
16523;DHT22;19889;52.546;13.348;2022-12-08T07:44:58;4.40;99.90
16523;DHT22;19889;52.546;13.348;2022-12-08T07:47:25;4.30;99.90
16523;DHT22;19889;52.546;13.348;2022-12-08T07:49:52;4.30;99.90
16523;DHT22;19889;52.546;13.348;2022-12-08T07:52:19;4.40;99.90
16523;DHT22;19889;52.546;13.348;2022-12-08T07:54:47;4.40;99.90
16523;DHT22;19889;52.546;13.348;2022-12-08T07:57:14;4.40;99.90
16523;DHT22;19889;52.546;13.348;2022-12-08T07:59:41;4.40;99.90
16523;DHT22;19889;52.546;13.348;2022-12-08T08:02:15;4.40;99.90
16523;DHT22;19889;52.546;13.348;2022-12-08T08:04:42;4.30;99.90
16523;DHT22;19889;52.546;13.348;2022-12-08T08:07:09;4.40;99.90
16523;DHT22;19889;52.546;13.348;2022-12-08T08:09:36;4.70;99.90
16523;DHT22;19889;52.546;13.348;2022-12-08T08:12:05;4.50;99.90
16523;DHT22;19889;52.546;13.348;2022-12-08T08:14:32;4.00;99.90
16523;DHT22;19889;52.546;13.348;2022-12-08T08:16:59;4.50;99.90
16523;DHT22;19889;52.546;13.348;2022-12-08T08:19:26;4.50;99.90
16523;DHT22;19889;52.546;13.348;2022-12-08T08:21:53;4.50;99.90
16523;DHT22;19889;52.546;13.348;2022-12-08T08:24:20;3.00;99.90
16523;DHT22;19889;52.546;13.348;2022-12-08T08:26:49;4.50;99.90
16523;DHT22;19889;52.546;13.348;2022-12-08T08:29:19;4.50;99.90
16523;DHT22;19889;52.546;13.348;2022-12-08T08:31:46;4.50;99.90
16523;DHT22;19889;52.546;13.348;2022-12-08T08:34:13;4.50;99.90
16523;DHT22;19889;52.546;13.348;2022-12-08T08:36:40;4.50;99.90
16523;DHT22;19889;52.546;13.348;2022-12-08T08:39:07;4.50;99.90
16523;DHT22;19889;52.546;13.348;2022-12-08T08:41:35;4.40;99.90
16523;DHT22;19889;52.546;13.348;2022-12-08T08:44:02;4.60;99.90
16523;DHT22;19889;52.546;13.348;2022-12-08T08:46:30;4.50;99.90
16523;DHT22;19889;52.546;13.348;2022-12-08T08:48:57;4.60;99.90
16523;DHT22;19889;52.546;13.348;2022-12-08T08:51:24;4.50;99.90
16523;DHT22;19889;52.546;13.348;2022-12-08T08:53:51;4.50;99.90
16523;DHT22;19889;52.546;13.348;2022-12-08T08:56:19;5.00;99.90
16523;DHT22;19889;52.546;13.348;2022-12-08T08:58:46;5.80;99.90
16523;DHT22;19889;52.546;13.348;2022-12-08T09:01:15;4.60;99.90
16523;DHT22;19889;52.546;13.348;2022-12-08T09:03:44;4.80;99.90
16523;DHT22;19889;52.546;13.348;2022-12-08T09:06:11;4.60;99.90
16523;DHT22;19889;52.546;13.348;2022-12-08T09:08:39;4.60;99.90
16523;DHT22;19889;52.546;13.348;2022-12-08T09:11:06;4.70;99.90
16523;DHT22;19889;52.546;13.348;2022-12-08T09:13:33;4.70;99.90
16523;DHT22;19889;52.546;13.348;2022-12-08T09:16:01;4.80;99.90
16523;DHT22;19889;52.546;13.348;2022-12-08T09:18:28;4.80;99.90
16523;DHT22;19889;52.546;13.348;2022-12-08T09:21:02;4.80;99.90
16523;DHT22;19889;52.546;13.348;2022-12-08T09:23:30;4.80;99.90
16523;DHT22;19889;52.546;13.348;2022-12-08T09:25:57;4.70;99.90
16523;DHT22;19889;52.546;13.348;2022-12-08T09:28:24;4.70;99.90
16523;DHT22;19889;52.546;13.348;2022-12-08T09:30:51;4.80;99.90
16523;DHT22;19889;52.546;13.348;2022-12-08T09:33:18;4.80;99.90
16523;DHT22;19889;52.546;13.348;2022-12-08T09:35:45;4.70;99.90
16523;DHT22;19889;52.546;13.348;2022-12-08T09:38:13;4.80;99.90
16523;DHT22;19889;52.546;13.348;2022-12-08T09:40:47;4.80;99.90
16523;DHT22;19889;52.546;13.348;2022-12-08T09:43:22;4.60;99.90
16523;DHT22;19889;52.546;13.348;2022-12-08T09:45:51;4.80;99.90
16523;DHT22;19889;52.546;13.348;2022-12-08T09:48:21;4.80;99.90
16523;DHT22;19889;52.546;13.348;2022-12-08T09:50:51;4.90;99.90
16523;DHT22;19889;52.546;13.348;2022-12-08T09:53:23;4.70;99.90
16523;DHT22;19889;52.546;13.348;2022-12-08T09:55:54;4.70;99.90
16523;DHT22;19889;52.546;13.348;2022-12-08T09:58:28;4.90;99.90
16523;DHT22;19889;52.546;13.348;2022-12-08T10:00:58;4.80;99.90
16523;DHT22;19889;52.546;13.348;2022-12-08T10:03:29;4.80;99.90
16523;DHT22;19889;52.546;13.348;2022-12-08T10:06:06;4.70;99.90
16523;DHT22;19889;52.546;13.348;2022-12-08T10:08:42;4.90;99.90
16523;DHT22;19889;52.546;13.348;2022-12-08T10:11:14;4.80;99.90
16523;DHT22;19889;52.546;13.348;2022-12-08T10:13:48;4.80;99.90
16523;DHT22;19889;52.546;13.348;2022-12-08T10:16:23;4.80;99.90
16523;DHT22;19889;52.546;13.348;2022-12-08T10:18:56;4.70;99.90
16523;DHT22;19889;52.546;13.348;2022-12-08T10:21:26;4.80;99.90
16523;DHT22;19889;52.546;13.348;2022-12-08T10:24:00;4.70;99.90
16523;DHT22;19889;52.546;13.348;2022-12-08T10:26:28;4.80;99.90
16523;DHT22;19889;52.546;13.348;2022-12-08T10:28:57;4.80;99.90
16523;DHT22;19889;52.546;13.348;2022-12-08T10:31:29;4.70;99.90
16523;DHT22;19889;52.546;13.348;2022-12-08T10:33:58;4.90;99.90
16523;DHT22;19889;52.546;13.348;2022-12-08T10:36:44;4.80;99.90
16523;DHT22;19889;52.546;13.348;2022-12-08T10:39:36;4.90;99.90
16523;DHT22;19889;52.546;13.348;2022-12-08T10:42:08;4.90;99.90
16523;DHT22;19889;52.546;13.348;2022-12-08T10:44:45;4.90;99.90
16523;DHT22;19889;52.546;13.348;2022-12-08T10:47:19;5.60;99.90
16523;DHT22;19889;52.546;13.348;2022-12-08T10:49:47;4.90;99.90
16523;DHT22;19889;52.546;13.348;2022-12-08T10:52:22;4.90;99.90
16523;DHT22;19889;52.546;13.348;2022-12-08T10:54:53;5.10;99.90
16523;DHT22;19889;52.546;13.348;2022-12-08T10:57:21;5.00;99.90
16523;DHT22;19889;52.546;13.348;2022-12-08T10:59:53;5.00;99.90
16523;DHT22;19889;52.546;13.348;2022-12-08T11:02:22;5.10;99.90
16523;DHT22;19889;52.546;13.348;2022-12-08T11:04:56;5.10;99.90
16523;DHT22;19889;52.546;13.348;2022-12-08T11:07:25;5.10;99.90
16523;DHT22;19889;52.546;13.348;2022-12-08T11:09:56;5.10;99.90
16523;DHT22;19889;52.546;13.348;2022-12-08T11:12:27;5.10;99.90
16523;DHT22;19889;52.546;13.348;2022-12-08T11:14:56;5.10;99.90
16523;DHT22;19889;52.546;13.348;2022-12-08T11:17:28;5.10;99.90
16523;DHT22;19889;52.546;13.348;2022-12-08T11:20:02;5.20;99.90
16523;DHT22;19889;52.546;13.348;2022-12-08T11:22:32;5.10;99.90
16523;DHT22;19889;52.546;13.348;2022-12-08T11:25:09;5.70;99.90
16523;DHT22;19889;52.546;13.348;2022-12-08T11:27:38;5.10;99.90
16523;DHT22;19889;52.546;13.348;2022-12-08T11:30:13;4.90;99.90
16523;DHT22;19889;52.546;13.348;2022-12-08T11:32:42;5.10;99.90
16523;DHT22;19889;52.546;13.348;2022-12-08T11:35:20;5.00;99.90
16523;DHT22;19889;52.546;13.348;2022-12-08T11:37:48;5.00;99.90
16523;DHT22;19889;52.546;13.348;2022-12-08T11:40:20;5.00;99.90
16523;DHT22;19889;52.546;13.348;2022-12-08T11:43:01;5.00;99.90
16523;DHT22;19889;52.546;13.348;2022-12-08T11:45:34;5.10;99.90
16523;DHT22;19889;52.546;13.348;2022-12-08T11:48:09;5.00;99.90
16523;DHT22;19889;52.546;13.348;2022-12-08T11:50:42;5.00;99.90
16523;DHT22;19889;52.546;13.348;2022-12-08T11:53:24;5.00;99.90
16523;DHT22;19889;52.546;13.348;2022-12-08T11:55:56;5.10;99.90
16523;DHT22;19889;52.546;13.348;2022-12-08T11:58:28;5.00;99.90
16523;DHT22;19889;52.546;13.348;2022-12-08T12:00:56;5.00;99.90
16523;DHT22;19889;52.546;13.348;2022-12-08T12:03:28;5.00;99.90
16523;DHT22;19889;52.546;13.348;2022-12-08T12:06:26;5.10;99.90
16523;DHT22;19889;52.546;13.348;2022-12-08T12:09:04;5.20;99.90
16523;DHT22;19889;52.546;13.348;2022-12-08T12:11:44;4.90;99.90
16523;DHT22;19889;52.546;13.348;2022-12-08T12:14:45;5.10;99.90
16523;DHT22;19889;52.546;13.348;2022-12-08T12:17:28;5.10;99.90
16523;DHT22;19889;52.546;13.348;2022-12-08T12:20:02;5.30;99.90
16523;DHT22;19889;52.546;13.348;2022-12-08T12:22:34;5.10;99.90
16523;DHT22;19889;52.546;13.348;2022-12-08T12:25:01;5.30;99.90
16523;DHT22;19889;52.546;13.348;2022-12-08T12:27:35;5.10;99.90
16523;DHT22;19889;52.546;13.348;2022-12-08T12:30:06;5.10;99.90
16523;DHT22;19889;52.546;13.348;2022-12-08T12:32:42;5.20;99.90
16523;DHT22;19889;52.546;13.348;2022-12-08T12:35:15;5.20;99.90
16523;DHT22;19889;52.546;13.348;2022-12-08T12:37:47;5.20;99.90
16523;DHT22;19889;52.546;13.348;2022-12-08T12:40:17;5.20;99.90
16523;DHT22;19889;52.546;13.348;2022-12-08T12:43:23;5.30;99.90
16523;DHT22;19889;52.546;13.348;2022-12-08T12:45:35;5.30;99.90
16523;DHT22;19889;52.546;13.348;2022-12-08T12:48:22;5.30;99.90
16523;DHT22;19889;52.546;13.348;2022-12-08T12:50:50;5.30;99.90
16523;DHT22;19889;52.546;13.348;2022-12-08T12:53:45;5.20;99.90
16523;DHT22;19889;52.546;13.348;2022-12-08T12:59:44;5.40;99.90
16523;DHT22;19889;52.546;13.348;2022-12-08T13:02:19;5.40;99.90
16523;DHT22;19889;52.546;13.348;2022-12-08T13:04:56;5.40;99.90
16523;DHT22;19889;52.546;13.348;2022-12-08T13:07:25;5.40;99.90
16523;DHT22;19889;52.546;13.348;2022-12-08T13:09:59;5.40;99.90
16523;DHT22;19889;52.546;13.348;2022-12-08T13:12:27;5.40;99.90
16523;DHT22;19889;52.546;13.348;2022-12-08T13:15:01;5.40;99.90
16523;DHT22;19889;52.546;13.348;2022-12-08T13:17:31;5.30;99.90
16523;DHT22;19889;52.546;13.348;2022-12-08T13:20:01;5.40;99.90
16523;DHT22;19889;52.546;13.348;2022-12-08T13:23:11;5.30;99.90
16523;DHT22;19889;52.546;13.348;2022-12-08T13:25:50;5.40;99.90
16523;DHT22;19889;52.546;13.348;2022-12-08T13:28:24;5.40;99.90
16523;DHT22;19889;52.546;13.348;2022-12-08T13:30:54;5.40;99.90
16523;DHT22;19889;52.546;13.348;2022-12-08T13:33:29;5.20;99.90
16523;DHT22;19889;52.546;13.348;2022-12-08T13:36:18;5.30;99.90
16523;DHT22;19889;52.546;13.348;2022-12-08T13:38:50;5.20;99.90
16523;DHT22;19889;52.546;13.348;2022-12-08T13:41:22;5.30;99.90
16523;DHT22;19889;52.546;13.348;2022-12-08T13:43:54;5.50;99.90
16523;DHT22;19889;52.546;13.348;2022-12-08T13:46:33;5.30;99.90
16523;DHT22;19889;52.546;13.348;2022-12-08T13:49:02;5.40;99.90
16523;DHT22;19889;52.546;13.348;2022-12-08T13:51:36;5.10;99.90
16523;DHT22;19889;52.546;13.348;2022-12-08T13:54:07;5.00;99.90
16523;DHT22;19889;52.546;13.348;2022-12-08T13:56:42;5.20;99.90
16523;DHT22;19889;52.546;13.348;2022-12-08T13:59:24;5.20;99.90
16523;DHT22;19889;52.546;13.348;2022-12-08T14:01:56;5.30;99.90
16523;DHT22;19889;52.546;13.348;2022-12-08T14:04:24;5.50;99.90
16523;DHT22;19889;52.546;13.348;2022-12-08T14:06:54;5.10;99.90
16523;DHT22;19889;52.546;13.348;2022-12-08T14:09:24;5.20;99.90
16523;DHT22;19889;52.546;13.348;2022-12-08T14:11:55;5.30;99.90
16523;DHT22;19889;52.546;13.348;2022-12-08T14:14:27;5.30;99.90
16523;DHT22;19889;52.546;13.348;2022-12-08T14:16:57;5.20;99.90
16523;DHT22;19889;52.546;13.348;2022-12-08T14:19:27;5.20;99.90
16523;DHT22;19889;52.546;13.348;2022-12-08T14:21:56;5.20;99.90
16523;DHT22;19889;52.546;13.348;2022-12-08T14:24:25;5.20;99.90
16523;DHT22;19889;52.546;13.348;2022-12-08T14:26:56;5.00;99.90
16523;DHT22;19889;52.546;13.348;2022-12-08T14:29:33;5.20;99.90
16523;DHT22;19889;52.546;13.348;2022-12-08T14:32:04;5.00;99.90
16523;DHT22;19889;52.546;13.348;2022-12-08T14:34:34;5.20;99.90
16523;DHT22;19889;52.546;13.348;2022-12-08T14:37:09;5.20;99.90
16523;DHT22;19889;52.546;13.348;2022-12-08T14:39:37;5.00;99.90
16523;DHT22;19889;52.546;13.348;2022-12-08T14:42:05;5.10;99.90
16523;DHT22;19889;52.546;13.348;2022-12-08T14:44:37;5.40;99.90
16523;DHT22;19889;52.546;13.348;2022-12-08T14:47:08;5.20;99.90
16523;DHT22;19889;52.546;13.348;2022-12-08T14:49:37;5.10;99.90
16523;DHT22;19889;52.546;13.348;2022-12-08T14:52:08;5.20;99.90
16523;DHT22;19889;52.546;13.348;2022-12-08T14:54:37;5.40;99.90
16523;DHT22;19889;52.546;13.348;2022-12-08T14:57:05;5.00;99.90
16523;DHT22;19889;52.546;13.348;2022-12-08T14:59:34;5.10;99.90
16523;DHT22;19889;52.546;13.348;2022-12-08T15:02:20;5.10;99.90
16523;DHT22;19889;52.546;13.348;2022-12-08T15:04:55;4.90;99.90
16523;DHT22;19889;52.546;13.348;2022-12-08T15:07:24;5.30;99.90
16523;DHT22;19889;52.546;13.348;2022-12-08T15:13:20;5.10;99.90
16523;DHT22;19889;52.546;13.348;2022-12-08T15:15:49;5.00;99.90
16523;DHT22;19889;52.546;13.348;2022-12-08T15:18:20;5.10;99.90
16523;DHT22;19889;52.546;13.348;2022-12-08T15:20:50;5.00;99.90
16523;DHT22;19889;52.546;13.348;2022-12-08T15:23:28;5.00;99.90
16523;DHT22;19889;52.546;13.348;2022-12-08T15:25:56;5.00;99.90
16523;DHT22;19889;52.546;13.348;2022-12-08T15:28:25;5.10;99.90
16523;DHT22;19889;52.546;13.348;2022-12-08T15:30:54;5.10;99.90
16523;DHT22;19889;52.546;13.348;2022-12-08T15:33:22;5.10;99.90
16523;DHT22;19889;52.546;13.348;2022-12-08T15:35:50;5.10;99.90
16523;DHT22;19889;52.546;13.348;2022-12-08T15:38:21;5.00;99.90
16523;DHT22;19889;52.546;13.348;2022-12-08T15:40:49;5.10;99.90
16523;DHT22;19889;52.546;13.348;2022-12-08T15:43:16;5.10;99.90
16523;DHT22;19889;52.546;13.348;2022-12-08T15:45:43;5.00;99.90
16523;DHT22;19889;52.546;13.348;2022-12-08T15:48:18;5.10;99.90
16523;DHT22;19889;52.546;13.348;2022-12-08T15:50:47;5.00;99.90
16523;DHT22;19889;52.546;13.348;2022-12-08T15:53:14;5.00;99.90
16523;DHT22;19889;52.546;13.348;2022-12-08T15:55:42;5.10;99.90
16523;DHT22;19889;52.546;13.348;2022-12-08T15:58:15;5.10;99.90
16523;DHT22;19889;52.546;13.348;2022-12-08T16:00:43;5.10;99.90